sensor_id;sensor_type;location;lat;lon;timestamp;P1;durP1;ratioP1;P2;durP2;ratioP2
54460;SDS011;69977;49.414;11.010;2023-06-22T00:01:10;10.67;;;7.07;;
54460;SDS011;69977;49.414;11.010;2023-06-22T00:03:36;7.87;;;6.50;;
54460;SDS011;69977;49.414;11.010;2023-06-22T00:06:02;7.63;;;6.27;;
54460;SDS011;69977;49.414;11.010;2023-06-22T00:08:28;7.87;;;6.50;;
54460;SDS011;69977;49.414;11.010;2023-06-22T00:10:55;11.23;;;6.90;;
54460;SDS011;69977;49.414;11.010;2023-06-22T00:13:21;7.73;;;6.50;;
54460;SDS011;69977;49.414;11.010;2023-06-22T00:15:47;12.67;;;7.07;;
54460;SDS011;69977;49.414;11.010;2023-06-22T00:18:13;7.73;;;7.10;;
54460;SDS011;69977;49.414;11.010;2023-06-22T00:20:39;8.40;;;6.73;;
54460;SDS011;69977;49.414;11.010;2023-06-22T00:23:06;12.47;;;7.30;;
54460;SDS011;69977;49.414;11.010;2023-06-22T00:25:33;12.10;;;6.70;;
54460;SDS011;69977;49.414;11.010;2023-06-22T00:28:00;17.30;;;7.60;;
54460;SDS011;69977;49.414;11.010;2023-06-22T00:30:26;19.03;;;6.70;;
54460;SDS011;69977;49.414;11.010;2023-06-22T00:32:56;14.43;;;7.13;;
54460;SDS011;69977;49.414;11.010;2023-06-22T00:35:22;14.07;;;7.07;;
54460;SDS011;69977;49.414;11.010;2023-06-22T00:37:48;14.90;;;6.90;;
54460;SDS011;69977;49.414;11.010;2023-06-22T00:40:14;8.40;;;6.97;;
54460;SDS011;69977;49.414;11.010;2023-06-22T00:42:42;10.23;;;7.07;;
54460;SDS011;69977;49.414;11.010;2023-06-22T00:45:08;9.30;;;7.63;;
54460;SDS011;69977;49.414;11.010;2023-06-22T00:47:35;10.50;;;6.90;;
54460;SDS011;69977;49.414;11.010;2023-06-22T00:50:03;10.57;;;7.30;;
54460;SDS011;69977;49.414;11.010;2023-06-22T00:52:32;7.80;;;7.00;;
54460;SDS011;69977;49.414;11.010;2023-06-22T00:55:00;7.63;;;6.83;;
54460;SDS011;69977;49.414;11.010;2023-06-22T00:57:28;8.53;;;7.20;;
54460;SDS011;69977;49.414;11.010;2023-06-22T00:59:54;10.40;;;7.50;;
54460;SDS011;69977;49.414;11.010;2023-06-22T01:02:21;7.30;;;6.70;;
54460;SDS011;69977;49.414;11.010;2023-06-22T01:04:47;12.57;;;7.47;;
54460;SDS011;69977;49.414;11.010;2023-06-22T01:07:17;10.73;;;7.03;;
54460;SDS011;69977;49.414;11.010;2023-06-22T01:12:33;9.00;;;6.97;;
54460;SDS011;69977;49.414;11.010;2023-06-22T01:15:36;11.87;;;7.40;;
54460;SDS011;69977;49.414;11.010;2023-06-22T01:17:53;8.13;;;6.67;;
54460;SDS011;69977;49.414;11.010;2023-06-22T01:20:19;8.27;;;6.90;;
54460;SDS011;69977;49.414;11.010;2023-06-22T01:25:56;7.73;;;6.93;;
54460;SDS011;69977;49.414;11.010;2023-06-22T01:28:36;10.33;;;7.40;;
54460;SDS011;69977;49.414;11.010;2023-06-22T01:31:03;8.37;;;7.43;;
54460;SDS011;69977;49.414;11.010;2023-06-22T01:33:32;9.10;;;7.70;;
54460;SDS011;69977;49.414;11.010;2023-06-22T01:35:59;7.30;;;6.70;;
54460;SDS011;69977;49.414;11.010;2023-06-22T01:38:26;10.73;;;6.90;;
54460;SDS011;69977;49.414;11.010;2023-06-22T01:40:53;13.27;;;8.03;;
54460;SDS011;69977;49.414;11.010;2023-06-22T01:43:21;16.07;;;7.50;;
54460;SDS011;69977;49.414;11.010;2023-06-22T01:45:48;16.37;;;7.37;;
54460;SDS011;69977;49.414;11.010;2023-06-22T01:48:14;20.70;;;8.57;;
54460;SDS011;69977;49.414;11.010;2023-06-22T01:50:41;12.57;;;7.40;;
54460;SDS011;69977;49.414;11.010;2023-06-22T01:53:07;11.07;;;7.20;;
54460;SDS011;69977;49.414;11.010;2023-06-22T01:55:33;7.77;;;6.90;;
54460;SDS011;69977;49.414;11.010;2023-06-22T01:57:59;10.67;;;7.73;;
54460;SDS011;69977;49.414;11.010;2023-06-22T02:00:25;11.83;;;8.00;;
54460;SDS011;69977;49.414;11.010;2023-06-22T02:05:39;9.00;;;7.10;;
54460;SDS011;69977;49.414;11.010;2023-06-22T02:08:09;9.43;;;7.53;;
54460;SDS011;69977;49.414;11.010;2023-06-22T02:10:37;9.23;;;8.20;;
54460;SDS011;69977;49.414;11.010;2023-06-22T02:13:06;11.57;;;7.90;;
54460;SDS011;69977;49.414;11.010;2023-06-22T02:15:32;16.83;;;7.97;;
54460;SDS011;69977;49.414;11.010;2023-06-22T02:17:59;11.43;;;7.63;;
54460;SDS011;69977;49.414;11.010;2023-06-22T02:20:25;10.23;;;7.67;;
54460;SDS011;69977;49.414;11.010;2023-06-22T02:22:52;12.93;;;7.87;;
54460;SDS011;69977;49.414;11.010;2023-06-22T02:25:18;12.07;;;7.53;;
54460;SDS011;69977;49.414;11.010;2023-06-22T02:27:45;10.73;;;7.67;;
54460;SDS011;69977;49.414;11.010;2023-06-22T02:30:11;9.37;;;7.10;;
54460;SDS011;69977;49.414;11.010;2023-06-22T02:32:38;11.93;;;8.33;;
54460;SDS011;69977;49.414;11.010;2023-06-22T02:35:10;8.93;;;7.17;;
54460;SDS011;69977;49.414;11.010;2023-06-22T02:37:36;15.07;;;8.40;;
54460;SDS011;69977;49.414;11.010;2023-06-22T02:40:07;11.17;;;7.60;;
54460;SDS011;69977;49.414;11.010;2023-06-22T02:42:37;11.93;;;8.10;;
54460;SDS011;69977;49.414;11.010;2023-06-22T02:45:03;13.17;;;7.63;;
54460;SDS011;69977;49.414;11.010;2023-06-22T02:47:29;8.50;;;7.40;;
54460;SDS011;69977;49.414;11.010;2023-06-22T02:49:56;15.53;;;9.17;;
54460;SDS011;69977;49.414;11.010;2023-06-22T02:52:23;12.33;;;9.07;;
54460;SDS011;69977;49.414;11.010;2023-06-22T02:54:49;12.30;;;9.50;;
54460;SDS011;69977;49.414;11.010;2023-06-22T02:57:15;10.93;;;9.30;;
54460;SDS011;69977;49.414;11.010;2023-06-22T02:59:43;13.20;;;9.70;;
54460;SDS011;69977;49.414;11.010;2023-06-22T03:02:11;12.00;;;9.60;;
54460;SDS011;69977;49.414;11.010;2023-06-22T03:04:38;10.73;;;9.17;;
54460;SDS011;69977;49.414;11.010;2023-06-22T03:07:04;12.67;;;8.20;;
54460;SDS011;69977;49.414;11.010;2023-06-22T03:09:31;12.93;;;8.37;;
54460;SDS011;69977;49.414;11.010;2023-06-22T03:11:57;12.00;;;8.97;;
54460;SDS011;69977;49.414;11.010;2023-06-22T03:14:29;10.17;;;8.50;;
54460;SDS011;69977;49.414;11.010;2023-06-22T03:16:55;11.97;;;9.27;;
54460;SDS011;69977;49.414;11.010;2023-06-22T03:19:27;10.20;;;8.70;;
54460;SDS011;69977;49.414;11.010;2023-06-22T03:21:54;9.20;;;8.30;;
54460;SDS011;69977;49.414;11.010;2023-06-22T03:24:20;9.53;;;8.67;;
54460;SDS011;69977;49.414;11.010;2023-06-22T03:26:47;13.17;;;7.80;;
54460;SDS011;69977;49.414;11.010;2023-06-22T03:29:13;16.67;;;8.73;;
54460;SDS011;69977;49.414;11.010;2023-06-22T03:31:41;9.33;;;8.40;;
54460;SDS011;69977;49.414;11.010;2023-06-22T03:34:07;11.63;;;8.37;;
54460;SDS011;69977;49.414;11.010;2023-06-22T03:36:33;12.60;;;8.30;;
54460;SDS011;69977;49.414;11.010;2023-06-22T03:39:01;18.57;;;8.77;;
54460;SDS011;69977;49.414;11.010;2023-06-22T03:41:27;10.57;;;8.70;;
54460;SDS011;69977;49.414;11.010;2023-06-22T03:43:53;12.87;;;8.50;;
54460;SDS011;69977;49.414;11.010;2023-06-22T03:46:20;9.03;;;8.13;;
54460;SDS011;69977;49.414;11.010;2023-06-22T03:48:46;8.97;;;7.87;;
54460;SDS011;69977;49.414;11.010;2023-06-22T03:51:12;8.50;;;7.73;;
54460;SDS011;69977;49.414;11.010;2023-06-22T03:53:38;9.57;;;8.40;;
54460;SDS011;69977;49.414;11.010;2023-06-22T03:56:04;9.70;;;8.43;;
54460;SDS011;69977;49.414;11.010;2023-06-22T03:58:30;9.23;;;8.30;;
54460;SDS011;69977;49.414;11.010;2023-06-22T04:01:00;11.63;;;8.90;;
54460;SDS011;69977;49.414;11.010;2023-06-22T04:03:26;9.00;;;7.90;;
54460;SDS011;69977;49.414;11.010;2023-06-22T04:05:52;9.90;;;8.43;;
54460;SDS011;69977;49.414;11.010;2023-06-22T04:08:18;13.33;;;8.83;;
54460;SDS011;69977;49.414;11.010;2023-06-22T04:10:45;10.30;;;8.33;;
54460;SDS011;69977;49.414;11.010;2023-06-22T04:13:11;9.73;;;8.17;;
54460;SDS011;69977;49.414;11.010;2023-06-22T04:15:37;9.23;;;8.33;;
54460;SDS011;69977;49.414;11.010;2023-06-22T04:18:03;9.60;;;8.60;;
54460;SDS011;69977;49.414;11.010;2023-06-22T04:20:30;12.07;;;8.83;;
54460;SDS011;69977;49.414;11.010;2023-06-22T04:22:57;9.37;;;8.07;;
54460;SDS011;69977;49.414;11.010;2023-06-22T04:25:23;10.40;;;8.27;;
54460;SDS011;69977;49.414;11.010;2023-06-22T04:27:49;11.00;;;8.47;;
54460;SDS011;69977;49.414;11.010;2023-06-22T04:30:16;9.50;;;8.17;;
54460;SDS011;69977;49.414;11.010;2023-06-22T04:32:42;12.40;;;8.17;;
54460;SDS011;69977;49.414;11.010;2023-06-22T04:35:09;9.77;;;8.77;;
54460;SDS011;69977;49.414;11.010;2023-06-22T04:37:35;9.60;;;8.60;;
54460;SDS011;69977;49.414;11.010;2023-06-22T04:40:01;10.60;;;8.20;;
54460;SDS011;69977;49.414;11.010;2023-06-22T04:42:29;9.53;;;8.33;;
54460;SDS011;69977;49.414;11.010;2023-06-22T04:44:57;10.50;;;8.67;;
54460;SDS011;69977;49.414;11.010;2023-06-22T04:47:23;9.77;;;7.87;;
54460;SDS011;69977;49.414;11.010;2023-06-22T04:49:49;9.80;;;8.57;;
54460;SDS011;69977;49.414;11.010;2023-06-22T04:52:15;9.67;;;8.77;;
54460;SDS011;69977;49.414;11.010;2023-06-22T04:54:42;13.20;;;10.30;;
54460;SDS011;69977;49.414;11.010;2023-06-22T04:57:13;12.63;;;8.80;;
54460;SDS011;69977;49.414;11.010;2023-06-22T04:59:40;10.97;;;9.30;;
54460;SDS011;69977;49.414;11.010;2023-06-22T05:02:06;9.37;;;8.47;;
54460;SDS011;69977;49.414;11.010;2023-06-22T05:04:33;8.50;;;7.80;;
54460;SDS011;69977;49.414;11.010;2023-06-22T05:07:01;8.83;;;8.03;;
54460;SDS011;69977;49.414;11.010;2023-06-22T05:09:27;9.50;;;8.70;;
54460;SDS011;69977;49.414;11.010;2023-06-22T05:11:54;9.27;;;7.90;;
54460;SDS011;69977;49.414;11.010;2023-06-22T05:14:21;9.10;;;7.53;;
54460;SDS011;69977;49.414;11.010;2023-06-22T05:16:48;7.73;;;6.97;;
54460;SDS011;69977;49.414;11.010;2023-06-22T05:19:14;8.83;;;7.93;;
54460;SDS011;69977;49.414;11.010;2023-06-22T05:21:40;8.17;;;7.33;;
54460;SDS011;69977;49.414;11.010;2023-06-22T05:24:06;7.60;;;6.80;;
54460;SDS011;69977;49.414;11.010;2023-06-22T05:26:33;8.37;;;7.50;;
54460;SDS011;69977;49.414;11.010;2023-06-22T05:29:00;8.90;;;8.00;;
54460;SDS011;69977;49.414;11.010;2023-06-22T05:31:27;7.57;;;6.83;;
54460;SDS011;69977;49.414;11.010;2023-06-22T05:33:54;8.00;;;7.20;;
54460;SDS011;69977;49.414;11.010;2023-06-22T05:36:20;7.77;;;7.00;;
54460;SDS011;69977;49.414;11.010;2023-06-22T05:38:50;7.03;;;6.43;;
54460;SDS011;69977;49.414;11.010;2023-06-22T05:41:17;7.40;;;6.80;;
54460;SDS011;69977;49.414;11.010;2023-06-22T05:43:43;9.13;;;6.60;;
54460;SDS011;69977;49.414;11.010;2023-06-22T05:46:09;8.27;;;7.53;;
54460;SDS011;69977;49.414;11.010;2023-06-22T05:48:35;7.77;;;7.00;;
54460;SDS011;69977;49.414;11.010;2023-06-22T05:51:01;7.10;;;6.50;;
54460;SDS011;69977;49.414;11.010;2023-06-22T05:53:27;7.20;;;6.60;;
54460;SDS011;69977;49.414;11.010;2023-06-22T05:55:53;7.27;;;6.23;;
54460;SDS011;69977;49.414;11.010;2023-06-22T05:58:20;8.13;;;7.33;;
54460;SDS011;69977;49.414;11.010;2023-06-22T06:00:46;7.17;;;6.47;;
54460;SDS011;69977;49.414;11.010;2023-06-22T06:03:13;7.77;;;7.07;;
54460;SDS011;69977;49.414;11.010;2023-06-22T06:05:42;8.67;;;6.93;;
54460;SDS011;69977;49.414;11.010;2023-06-22T06:08:08;7.07;;;6.47;;
54460;SDS011;69977;49.414;11.010;2023-06-22T06:10:36;7.77;;;6.83;;
54460;SDS011;69977;49.414;11.010;2023-06-22T06:13:02;7.13;;;6.50;;
54460;SDS011;69977;49.414;11.010;2023-06-22T06:15:29;7.67;;;6.97;;
54460;SDS011;69977;49.414;11.010;2023-06-22T06:17:56;6.80;;;6.27;;
54460;SDS011;69977;49.414;11.010;2023-06-22T06:20:23;8.27;;;6.37;;
54460;SDS011;69977;49.414;11.010;2023-06-22T06:22:50;6.70;;;6.13;;
54460;SDS011;69977;49.414;11.010;2023-06-22T06:25:16;7.00;;;6.30;;
54460;SDS011;69977;49.414;11.010;2023-06-22T06:27:44;7.40;;;6.70;;
54460;SDS011;69977;49.414;11.010;2023-06-22T06:30:11;6.97;;;6.20;;
54460;SDS011;69977;49.414;11.010;2023-06-22T06:32:37;9.17;;;6.27;;
54460;SDS011;69977;49.414;11.010;2023-06-22T06:35:07;6.67;;;6.07;;
54460;SDS011;69977;49.414;11.010;2023-06-22T06:37:36;6.33;;;5.67;;
54460;SDS011;69977;49.414;11.010;2023-06-22T06:40:06;6.50;;;5.90;;
54460;SDS011;69977;49.414;11.010;2023-06-22T06:42:39;6.93;;;6.27;;
54460;SDS011;69977;49.414;11.010;2023-06-22T06:45:10;6.77;;;6.20;;
54460;SDS011;69977;49.414;11.010;2023-06-22T06:47:36;6.10;;;5.50;;
54460;SDS011;69977;49.414;11.010;2023-06-22T06:50:04;7.17;;;6.30;;
54460;SDS011;69977;49.414;11.010;2023-06-22T06:52:30;6.83;;;6.13;;
54460;SDS011;69977;49.414;11.010;2023-06-22T06:54:56;6.80;;;5.53;;
54460;SDS011;69977;49.414;11.010;2023-06-22T06:57:22;7.97;;;5.53;;
54460;SDS011;69977;49.414;11.010;2023-06-22T06:59:49;11.03;;;6.50;;
54460;SDS011;69977;49.414;11.010;2023-06-22T07:02:15;6.73;;;6.10;;
54460;SDS011;69977;49.414;11.010;2023-06-22T07:04:41;10.17;;;5.53;;
54460;SDS011;69977;49.414;11.010;2023-06-22T07:07:07;5.73;;;5.07;;
54460;SDS011;69977;49.414;11.010;2023-06-22T07:09:33;6.73;;;4.77;;
54460;SDS011;69977;49.414;11.010;2023-06-22T07:11:59;6.00;;;5.47;;
54460;SDS011;69977;49.414;11.010;2023-06-22T07:14:26;5.40;;;4.90;;
54460;SDS011;69977;49.414;11.010;2023-06-22T07:16:52;5.37;;;4.83;;
54460;SDS011;69977;49.414;11.010;2023-06-22T07:19:23;9.47;;;5.63;;
54460;SDS011;69977;49.414;11.010;2023-06-22T07:21:49;5.03;;;4.53;;
54460;SDS011;69977;49.414;11.010;2023-06-22T07:24:16;5.07;;;4.67;;
54460;SDS011;69977;49.414;11.010;2023-06-22T07:26:44;5.43;;;5.00;;
54460;SDS011;69977;49.414;11.010;2023-06-22T07:29:11;8.40;;;5.13;;
54460;SDS011;69977;49.414;11.010;2023-06-22T07:31:37;6.93;;;4.67;;
54460;SDS011;69977;49.414;11.010;2023-06-22T07:34:05;5.40;;;4.73;;
54460;SDS011;69977;49.414;11.010;2023-06-22T07:36:31;5.23;;;4.47;;
54460;SDS011;69977;49.414;11.010;2023-06-22T07:38:57;6.07;;;4.60;;
54460;SDS011;69977;49.414;11.010;2023-06-22T07:41:24;4.77;;;4.27;;
54460;SDS011;69977;49.414;11.010;2023-06-22T07:43:50;5.60;;;4.77;;
54460;SDS011;69977;49.414;11.010;2023-06-22T07:46:16;6.43;;;4.67;;
54460;SDS011;69977;49.414;11.010;2023-06-22T07:48:42;5.40;;;4.67;;
54460;SDS011;69977;49.414;11.010;2023-06-22T07:51:09;5.47;;;4.90;;
54460;SDS011;69977;49.414;11.010;2023-06-22T07:53:39;6.10;;;4.37;;
54460;SDS011;69977;49.414;11.010;2023-06-22T07:56:05;5.67;;;4.33;;
54460;SDS011;69977;49.414;11.010;2023-06-22T07:58:34;4.87;;;4.13;;
54460;SDS011;69977;49.414;11.010;2023-06-22T08:01:01;5.27;;;3.97;;
54460;SDS011;69977;49.414;11.010;2023-06-22T08:03:28;4.63;;;3.70;;
54460;SDS011;69977;49.414;11.010;2023-06-22T08:05:54;5.10;;;3.63;;
54460;SDS011;69977;49.414;11.010;2023-06-22T08:08:20;8.13;;;4.67;;
54460;SDS011;69977;49.414;11.010;2023-06-22T08:10:46;6.13;;;4.23;;
54460;SDS011;69977;49.414;11.010;2023-06-22T08:13:13;7.60;;;3.80;;
54460;SDS011;69977;49.414;11.010;2023-06-22T08:15:39;7.97;;;4.35;;
54460;SDS011;69977;49.414;11.010;2023-06-22T08:18:05;5.28;;;4.65;;
54460;SDS011;69977;49.414;11.010;2023-06-22T08:20:31;5.28;;;3.92;;
54460;SDS011;69977;49.414;11.010;2023-06-22T08:22:57;4.97;;;4.30;;
54460;SDS011;69977;49.414;11.010;2023-06-22T08:25:30;5.40;;;4.40;;
54460;SDS011;69977;49.414;11.010;2023-06-22T08:27:56;6.28;;;4.43;;
54460;SDS011;69977;49.414;11.010;2023-06-22T08:30:22;6.18;;;4.18;;
54460;SDS011;69977;49.414;11.010;2023-06-22T08:32:48;5.75;;;4.47;;
54460;SDS011;69977;49.414;11.010;2023-06-22T08:35:14;5.40;;;3.83;;
54460;SDS011;69977;49.414;11.010;2023-06-22T08:37:41;5.35;;;4.18;;
54460;SDS011;69977;49.414;11.010;2023-06-22T08:40:08;4.28;;;3.83;;
54460;SDS011;69977;49.414;11.010;2023-06-22T08:42:35;5.32;;;4.03;;
54460;SDS011;69977;49.414;11.010;2023-06-22T08:45:01;6.20;;;3.75;;
54460;SDS011;69977;49.414;11.010;2023-06-22T08:47:28;5.97;;;4.40;;
54460;SDS011;69977;49.414;11.010;2023-06-22T08:49:54;6.45;;;4.30;;
54460;SDS011;69977;49.414;11.010;2023-06-22T08:52:20;4.65;;;4.07;;
54460;SDS011;69977;49.414;11.010;2023-06-22T08:54:48;5.13;;;3.92;;
54460;SDS011;69977;49.414;11.010;2023-06-22T08:57:14;6.22;;;4.32;;
54460;SDS011;69977;49.414;11.010;2023-06-22T08:59:41;7.80;;;4.65;;
54460;SDS011;69977;49.414;11.010;2023-06-22T09:02:07;4.28;;;3.88;;
54460;SDS011;69977;49.414;11.010;2023-06-22T09:04:34;5.28;;;4.07;;
54460;SDS011;69977;49.414;11.010;2023-06-22T09:07:00;9.82;;;4.63;;
54460;SDS011;69977;49.414;11.010;2023-06-22T09:09:27;6.15;;;4.03;;
54460;SDS011;69977;49.414;11.010;2023-06-22T09:11:53;5.50;;;3.65;;
54460;SDS011;69977;49.414;11.010;2023-06-22T09:14:19;5.38;;;3.75;;
54460;SDS011;69977;49.414;11.010;2023-06-22T09:16:45;5.60;;;4.10;;
54460;SDS011;69977;49.414;11.010;2023-06-22T09:19:11;5.35;;;3.88;;
54460;SDS011;69977;49.414;11.010;2023-06-22T09:21:38;5.72;;;4.10;;
54460;SDS011;69977;49.414;11.010;2023-06-22T09:24:04;6.47;;;4.13;;
54460;SDS011;69977;49.414;11.010;2023-06-22T09:26:30;5.25;;;3.72;;
54460;SDS011;69977;49.414;11.010;2023-06-22T09:28:56;7.53;;;4.00;;
54460;SDS011;69977;49.414;11.010;2023-06-22T09:31:23;4.20;;;3.72;;
54460;SDS011;69977;49.414;11.010;2023-06-22T09:33:52;7.88;;;4.70;;
54460;SDS011;69977;49.414;11.010;2023-06-22T09:36:19;4.47;;;3.97;;
54460;SDS011;69977;49.414;11.010;2023-06-22T09:38:46;9.98;;;4.30;;
54460;SDS011;69977;49.414;11.010;2023-06-22T09:41:12;7.75;;;4.68;;
54460;SDS011;69977;49.414;11.010;2023-06-22T09:43:38;6.72;;;4.20;;
54460;SDS011;69977;49.414;11.010;2023-06-22T09:46:04;6.28;;;3.97;;
54460;SDS011;69977;49.414;11.010;2023-06-22T09:48:32;4.88;;;3.75;;
54460;SDS011;69977;49.414;11.010;2023-06-22T09:50:58;7.32;;;3.80;;
54460;SDS011;69977;49.414;11.010;2023-06-22T09:53:24;5.50;;;3.88;;
54460;SDS011;69977;49.414;11.010;2023-06-22T09:55:50;6.78;;;4.10;;
54460;SDS011;69977;49.414;11.010;2023-06-22T09:58:16;7.80;;;4.15;;
54460;SDS011;69977;49.414;11.010;2023-06-22T10:00:43;4.82;;;3.35;;
54460;SDS011;69977;49.414;11.010;2023-06-22T10:03:09;6.15;;;4.45;;
54460;SDS011;69977;49.414;11.010;2023-06-22T10:05:35;7.18;;;4.25;;
54460;SDS011;69977;49.414;11.010;2023-06-22T10:08:01;6.53;;;4.03;;
54460;SDS011;69977;49.414;11.010;2023-06-22T10:10:27;6.85;;;4.25;;
54460;SDS011;69977;49.414;11.010;2023-06-22T10:12:57;7.63;;;4.95;;
54460;SDS011;69977;49.414;11.010;2023-06-22T10:15:23;5.63;;;4.47;;
54460;SDS011;69977;49.414;11.010;2023-06-22T10:17:52;6.35;;;4.88;;
54460;SDS011;69977;49.414;11.010;2023-06-22T10:20:18;10.10;;;4.45;;
54460;SDS011;69977;49.414;11.010;2023-06-22T10:22:45;8.02;;;4.43;;
54460;SDS011;69977;49.414;11.010;2023-06-22T10:25:12;9.38;;;4.45;;
54460;SDS011;69977;49.414;11.010;2023-06-22T10:27:39;7.70;;;4.88;;
54460;SDS011;69977;49.414;11.010;2023-06-22T10:30:06;5.43;;;4.03;;
54460;SDS011;69977;49.414;11.010;2023-06-22T10:32:32;13.13;;;4.20;;
54460;SDS011;69977;49.414;11.010;2023-06-22T10:34:58;9.13;;;4.50;;
54460;SDS011;69977;49.414;11.010;2023-06-22T10:37:24;6.90;;;3.80;;
54460;SDS011;69977;49.414;11.010;2023-06-22T10:39:50;10.98;;;4.68;;
54460;SDS011;69977;49.414;11.010;2023-06-22T10:42:16;4.70;;;3.78;;
54460;SDS011;69977;49.414;11.010;2023-06-22T10:44:43;7.80;;;3.90;;
54460;SDS011;69977;49.414;11.010;2023-06-22T10:47:09;5.03;;;3.92;;
54460;SDS011;69977;49.414;11.010;2023-06-22T10:49:37;7.47;;;3.95;;
54460;SDS011;69977;49.414;11.010;2023-06-22T10:52:04;7.28;;;4.30;;
54460;SDS011;69977;49.414;11.010;2023-06-22T10:54:32;9.10;;;4.45;;
54460;SDS011;69977;49.414;11.010;2023-06-22T10:56:58;5.32;;;3.58;;
54460;SDS011;69977;49.414;11.010;2023-06-22T10:59:25;9.80;;;4.05;;
54460;SDS011;69977;49.414;11.010;2023-06-22T11:01:52;4.22;;;3.60;;
54460;SDS011;69977;49.414;11.010;2023-06-22T11:04:18;5.03;;;4.07;;
54460;SDS011;69977;49.414;11.010;2023-06-22T11:06:45;11.10;;;3.85;;
54460;SDS011;69977;49.414;11.010;2023-06-22T11:09:11;7.32;;;4.18;;
54460;SDS011;69977;49.414;11.010;2023-06-22T11:11:37;11.07;;;4.07;;
54460;SDS011;69977;49.414;11.010;2023-06-22T11:14:03;6.35;;;4.95;;
54460;SDS011;69977;49.414;11.010;2023-06-22T11:16:29;7.40;;;4.25;;
54460;SDS011;69977;49.414;11.010;2023-06-22T11:18:55;8.43;;;4.15;;
54460;SDS011;69977;49.414;11.010;2023-06-22T11:21:21;5.30;;;3.83;;
54460;SDS011;69977;49.414;11.010;2023-06-22T11:23:48;6.53;;;3.90;;
54460;SDS011;69977;49.414;11.010;2023-06-22T11:26:15;8.85;;;3.97;;
54460;SDS011;69977;49.414;11.010;2023-06-22T11:28:41;8.48;;;3.67;;
54460;SDS011;69977;49.414;11.010;2023-06-22T11:31:07;5.93;;;3.78;;
54460;SDS011;69977;49.414;11.010;2023-06-22T11:33:34;6.90;;;3.95;;
54460;SDS011;69977;49.414;11.010;2023-06-22T11:36:00;5.72;;;3.97;;
54460;SDS011;69977;49.414;11.010;2023-06-22T11:38:26;7.38;;;4.22;;
54460;SDS011;69977;49.414;11.010;2023-06-22T11:40:52;7.18;;;3.97;;
54460;SDS011;69977;49.414;11.010;2023-06-22T11:43:18;8.52;;;4.43;;
54460;SDS011;69977;49.414;11.010;2023-06-22T11:45:44;11.68;;;4.43;;
54460;SDS011;69977;49.414;11.010;2023-06-22T11:48:10;6.72;;;3.85;;
54460;SDS011;69977;49.414;11.010;2023-06-22T11:50:36;6.55;;;4.18;;
54460;SDS011;69977;49.414;11.010;2023-06-22T11:53:03;9.00;;;3.72;;
54460;SDS011;69977;49.414;11.010;2023-06-22T11:55:29;9.68;;;4.30;;
54460;SDS011;69977;49.414;11.010;2023-06-22T11:57:56;7.18;;;4.20;;
54460;SDS011;69977;49.414;11.010;2023-06-22T12:00:24;6.63;;;4.10;;
54460;SDS011;69977;49.414;11.010;2023-06-22T12:02:51;6.38;;;3.78;;
54460;SDS011;69977;49.414;11.010;2023-06-22T12:05:20;6.07;;;4.15;;
54460;SDS011;69977;49.414;11.010;2023-06-22T12:07:47;12.45;;;4.95;;
54460;SDS011;69977;49.414;11.010;2023-06-22T12:10:13;8.30;;;3.83;;
54460;SDS011;69977;49.414;11.010;2023-06-22T12:12:40;6.10;;;4.03;;
54460;SDS011;69977;49.414;11.010;2023-06-22T12:15:06;8.35;;;4.10;;
54460;SDS011;69977;49.414;11.010;2023-06-22T12:17:33;8.07;;;4.07;;
54460;SDS011;69977;49.414;11.010;2023-06-22T12:19:59;7.30;;;4.18;;
54460;SDS011;69977;49.414;11.010;2023-06-22T12:22:26;9.02;;;3.80;;
54460;SDS011;69977;49.414;11.010;2023-06-22T12:24:52;7.63;;;3.95;;
54460;SDS011;69977;49.414;11.010;2023-06-22T12:27:18;5.75;;;3.88;;
54460;SDS011;69977;49.414;11.010;2023-06-22T12:29:45;12.30;;;4.38;;
54460;SDS011;69977;49.414;11.010;2023-06-22T12:32:12;7.40;;;4.25;;
54460;SDS011;69977;49.414;11.010;2023-06-22T12:34:39;10.40;;;4.45;;
54460;SDS011;69977;49.414;11.010;2023-06-22T12:37:05;6.53;;;4.07;;
54460;SDS011;69977;49.414;11.010;2023-06-22T12:39:31;8.65;;;4.13;;
54460;SDS011;69977;49.414;11.010;2023-06-22T12:41:58;6.95;;;3.80;;
54460;SDS011;69977;49.414;11.010;2023-06-22T12:44:24;6.70;;;3.65;;
54460;SDS011;69977;49.414;11.010;2023-06-22T12:46:50;9.05;;;3.97;;
54460;SDS011;69977;49.414;11.010;2023-06-22T12:49:16;6.88;;;4.40;;
54460;SDS011;69977;49.414;11.010;2023-06-22T12:51:42;8.57;;;3.80;;
54460;SDS011;69977;49.414;11.010;2023-06-22T12:54:09;5.72;;;4.30;;
54460;SDS011;69977;49.414;11.010;2023-06-22T12:56:35;7.13;;;4.15;;
54460;SDS011;69977;49.414;11.010;2023-06-22T12:59:01;5.90;;;3.90;;
54460;SDS011;69977;49.414;11.010;2023-06-22T13:01:27;8.88;;;4.00;;
54460;SDS011;69977;49.414;11.010;2023-06-22T13:03:55;7.88;;;4.18;;
54460;SDS011;69977;49.414;11.010;2023-06-22T13:06:21;9.52;;;4.45;;
54460;SDS011;69977;49.414;11.010;2023-06-22T13:08:47;8.85;;;4.25;;
54460;SDS011;69977;49.414;11.010;2023-06-22T13:11:14;9.35;;;4.78;;
54460;SDS011;69977;49.414;11.010;2023-06-22T13:13:40;15.07;;;8.93;;
54460;SDS011;69977;49.414;11.010;2023-06-22T13:16:06;8.45;;;4.30;;
54460;SDS011;69977;49.414;11.010;2023-06-22T13:18:33;8.75;;;4.35;;
54460;SDS011;69977;49.414;11.010;2023-06-22T13:21:01;8.75;;;3.95;;
54460;SDS011;69977;49.414;11.010;2023-06-22T13:23:27;7.72;;;4.32;;
54460;SDS011;69977;49.414;11.010;2023-06-22T13:25:53;9.52;;;4.70;;
54460;SDS011;69977;49.414;11.010;2023-06-22T13:28:19;7.93;;;3.88;;
54460;SDS011;69977;49.414;11.010;2023-06-22T13:30:46;9.45;;;4.32;;
54460;SDS011;69977;49.414;11.010;2023-06-22T13:33:15;9.15;;;4.63;;
54460;SDS011;69977;49.414;11.010;2023-06-22T13:35:42;7.43;;;3.72;;
54460;SDS011;69977;49.414;11.010;2023-06-22T13:38:08;8.80;;;4.32;;
54460;SDS011;69977;49.414;11.010;2023-06-22T13:40:35;11.18;;;4.53;;
54460;SDS011;69977;49.414;11.010;2023-06-22T13:43:03;8.43;;;4.40;;
54460;SDS011;69977;49.414;11.010;2023-06-22T13:45:29;9.38;;;4.60;;
54460;SDS011;69977;49.414;11.010;2023-06-22T13:47:55;9.38;;;4.93;;
54460;SDS011;69977;49.414;11.010;2023-06-22T13:50:21;8.38;;;4.55;;
54460;SDS011;69977;49.414;11.010;2023-06-22T13:52:47;7.50;;;5.00;;
54460;SDS011;69977;49.414;11.010;2023-06-22T13:55:14;9.45;;;3.88;;
54460;SDS011;69977;49.414;11.010;2023-06-22T13:57:40;8.60;;;4.50;;
54460;SDS011;69977;49.414;11.010;2023-06-22T14:00:06;12.52;;;5.25;;
54460;SDS011;69977;49.414;11.010;2023-06-22T14:02:37;16.13;;;5.32;;
54460;SDS011;69977;49.414;11.010;2023-06-22T14:05:04;9.38;;;3.80;;
54460;SDS011;69977;49.414;11.010;2023-06-22T14:07:31;11.27;;;4.50;;
54460;SDS011;69977;49.414;11.010;2023-06-22T14:09:57;9.70;;;4.30;;
54460;SDS011;69977;49.414;11.010;2023-06-22T14:12:24;8.05;;;4.25;;
54460;SDS011;69977;49.414;11.010;2023-06-22T14:14:50;19.95;;;5.63;;
54460;SDS011;69977;49.414;11.010;2023-06-22T14:17:16;10.77;;;4.75;;
54460;SDS011;69977;49.414;11.010;2023-06-22T14:19:42;9.25;;;4.90;;
54460;SDS011;69977;49.414;11.010;2023-06-22T14:22:08;14.77;;;4.97;;
54460;SDS011;69977;49.414;11.010;2023-06-22T14:24:34;6.05;;;3.97;;
54460;SDS011;69977;49.414;11.010;2023-06-22T14:27:00;11.85;;;4.40;;
54460;SDS011;69977;49.414;11.010;2023-06-22T14:29:28;10.27;;;4.28;;
54460;SDS011;69977;49.414;11.010;2023-06-22T14:31:54;8.57;;;4.32;;
54460;SDS011;69977;49.414;11.010;2023-06-22T14:34:20;11.52;;;4.90;;
54460;SDS011;69977;49.414;11.010;2023-06-22T14:36:46;11.20;;;4.57;;